sensor_id;sensor_type;location;lat;lon;timestamp;P1;durP1;ratioP1;P2;durP2;ratioP2
25637;SDS011;13496;51.040;13.680;2023-04-24T00:00:48;2.35;;;2.10;;
25637;SDS011;13496;51.040;13.680;2023-04-24T00:05:50;2.42;;;2.13;;
25637;SDS011;13496;51.040;13.680;2023-04-24T00:10:52;2.08;;;1.92;;
25637;SDS011;13496;51.040;13.680;2023-04-24T00:15:54;1.98;;;1.88;;
25637;SDS011;13496;51.040;13.680;2023-04-24T00:20:56;2.20;;;2.00;;
25637;SDS011;13496;51.040;13.680;2023-04-24T00:25:58;2.30;;;2.10;;
25637;SDS011;13496;51.040;13.680;2023-04-24T00:31:00;2.90;;;2.58;;
25637;SDS011;13496;51.040;13.680;2023-04-24T00:36:02;2.63;;;2.05;;
25637;SDS011;13496;51.040;13.680;2023-04-24T00:41:03;2.92;;;2.40;;
25637;SDS011;13496;51.040;13.680;2023-04-24T00:46:05;2.70;;;2.50;;
25637;SDS011;13496;51.040;13.680;2023-04-24T00:51:07;2.72;;;2.33;;
25637;SDS011;13496;51.040;13.680;2023-04-24T00:56:09;3.10;;;2.58;;
25637;SDS011;13496;51.040;13.680;2023-04-24T01:01:11;2.63;;;2.42;;
25637;SDS011;13496;51.040;13.680;2023-04-24T01:06:13;2.50;;;2.30;;
25637;SDS011;13496;51.040;13.680;2023-04-24T01:11:15;2.55;;;2.30;;
25637;SDS011;13496;51.040;13.680;2023-04-24T01:16:17;2.30;;;2.03;;
25637;SDS011;13496;51.040;13.680;2023-04-24T01:21:21;3.10;;;2.13;;
25637;SDS011;13496;51.040;13.680;2023-04-24T01:26:25;1.75;;;1.65;;
25637;SDS011;13496;51.040;13.680;2023-04-24T01:31:28;2.40;;;2.20;;
25637;SDS011;13496;51.040;13.680;2023-04-24T01:36:30;2.28;;;2.08;;
25637;SDS011;13496;51.040;13.680;2023-04-24T01:41:32;2.80;;;2.20;;
25637;SDS011;13496;51.040;13.680;2023-04-24T01:46:35;2.22;;;2.03;;
25637;SDS011;13496;51.040;13.680;2023-04-24T01:51:37;2.13;;;1.92;;
25637;SDS011;13496;51.040;13.680;2023-04-24T01:56:42;2.38;;;2.10;;
25637;SDS011;13496;51.040;13.680;2023-04-24T02:01:44;3.20;;;2.03;;
25637;SDS011;13496;51.040;13.680;2023-04-24T02:06:45;2.30;;;2.10;;
25637;SDS011;13496;51.040;13.680;2023-04-24T02:11:47;2.40;;;2.20;;
25637;SDS011;13496;51.040;13.680;2023-04-24T02:16:49;2.28;;;2.08;;
25637;SDS011;13496;51.040;13.680;2023-04-24T02:21:51;1.90;;;1.80;;
25637;SDS011;13496;51.040;13.680;2023-04-24T02:26:52;2.13;;;1.92;;
25637;SDS011;13496;51.040;13.680;2023-04-24T02:31:54;2.45;;;2.25;;
25637;SDS011;13496;51.040;13.680;2023-04-24T02:36:56;2.22;;;2.03;;
25637;SDS011;13496;51.040;13.680;2023-04-24T02:41:58;2.10;;;2.00;;
25637;SDS011;13496;51.040;13.680;2023-04-24T02:46:59;2.00;;;1.90;;
25637;SDS011;13496;51.040;13.680;2023-04-24T02:52:01;2.15;;;1.92;;
25637;SDS011;13496;51.040;13.680;2023-04-24T02:57:03;2.25;;;2.05;;
25637;SDS011;13496;51.040;13.680;2023-04-24T03:02:05;2.65;;;2.00;;
25637;SDS011;13496;51.040;13.680;2023-04-24T03:07:07;1.92;;;1.83;;
25637;SDS011;13496;51.040;13.680;2023-04-24T03:12:08;2.00;;;1.90;;
25637;SDS011;13496;51.040;13.680;2023-04-24T03:17:11;2.00;;;1.80;;
25637;SDS011;13496;51.040;13.680;2023-04-24T03:22:13;2.55;;;2.10;;
25637;SDS011;13496;51.040;13.680;2023-04-24T03:27:15;1.90;;;1.70;;
25637;SDS011;13496;51.040;13.680;2023-04-24T03:32:30;2.30;;;2.10;;
25637;SDS011;13496;51.040;13.680;2023-04-24T03:37:33;2.40;;;2.17;;
25637;SDS011;13496;51.040;13.680;2023-04-24T03:42:52;1.85;;;1.75;;
25637;SDS011;13496;51.040;13.680;2023-04-24T03:47:54;1.77;;;1.67;;
25637;SDS011;13496;51.040;13.680;2023-04-24T03:52:56;1.90;;;1.80;;
25637;SDS011;13496;51.040;13.680;2023-04-24T03:58:09;1.80;;;1.70;;
25637;SDS011;13496;51.040;13.680;2023-04-24T04:03:12;2.38;;;1.92;;
25637;SDS011;13496;51.040;13.680;2023-04-24T04:08:15;2.15;;;1.95;;
25637;SDS011;13496;51.040;13.680;2023-04-24T04:13:17;1.92;;;1.83;;
25637;SDS011;13496;51.040;13.680;2023-04-24T04:18:20;2.10;;;1.90;;
25637;SDS011;13496;51.040;13.680;2023-04-24T04:23:22;2.20;;;2.00;;
25637;SDS011;13496;51.040;13.680;2023-04-24T04:28:53;1.92;;;1.83;;
25637;SDS011;13496;51.040;13.680;2023-04-24T04:33:55;2.03;;;1.80;;
25637;SDS011;13496;51.040;13.680;2023-04-24T04:38:57;2.00;;;1.80;;
25637;SDS011;13496;51.040;13.680;2023-04-24T04:44:20;3.10;;;2.10;;
25637;SDS011;13496;51.040;13.680;2023-04-24T04:49:22;2.95;;;2.03;;
25637;SDS011;13496;51.040;13.680;2023-04-24T04:54:26;2.15;;;1.92;;
25637;SDS011;13496;51.040;13.680;2023-04-24T04:59:28;2.10;;;1.70;;
25637;SDS011;13496;51.040;13.680;2023-04-24T05:04:37;2.75;;;1.75;;
25637;SDS011;13496;51.040;13.680;2023-04-24T05:09:39;1.95;;;1.55;;
25637;SDS011;13496;51.040;13.680;2023-04-24T05:14:42;3.53;;;2.17;;
25637;SDS011;13496;51.040;13.680;2023-04-24T05:19:45;1.88;;;1.73;;
25637;SDS011;13496;51.040;13.680;2023-04-24T05:24:48;2.05;;;1.85;;
25637;SDS011;13496;51.040;13.680;2023-04-24T05:30:06;3.28;;;2.33;;
25637;SDS011;13496;51.040;13.680;2023-04-24T05:35:09;3.78;;;1.90;;
25637;SDS011;13496;51.040;13.680;2023-04-24T05:40:11;1.90;;;1.52;;
25637;SDS011;13496;51.040;13.680;2023-04-24T05:45:13;2.42;;;1.70;;
25637;SDS011;13496;51.040;13.680;2023-04-24T05:50:18;1.90;;;1.80;;
25637;SDS011;13496;51.040;13.680;2023-04-24T05:55:21;2.05;;;1.73;;
25637;SDS011;13496;51.040;13.680;2023-04-24T06:00:23;2.70;;;1.67;;
25637;SDS011;13496;51.040;13.680;2023-04-24T06:05:34;2.80;;;1.63;;
25637;SDS011;13496;51.040;13.680;2023-04-24T06:10:38;3.20;;;1.60;;
25637;SDS011;13496;51.040;13.680;2023-04-24T06:15:43;4.60;;;1.75;;
25637;SDS011;13496;51.040;13.680;2023-04-24T06:20:51;2.40;;;1.80;;
25637;SDS011;13496;51.040;13.680;2023-04-24T06:25:53;1.65;;;1.55;;
25637;SDS011;13496;51.040;13.680;2023-04-24T06:30:54;3.45;;;1.90;;
25637;SDS011;13496;51.040;13.680;2023-04-24T06:35:57;2.58;;;1.75;;
25637;SDS011;13496;51.040;13.680;2023-04-24T06:40:58;2.30;;;1.48;;
25637;SDS011;13496;51.040;13.680;2023-04-24T06:46:00;2.75;;;1.63;;
25637;SDS011;13496;51.040;13.680;2023-04-24T06:51:03;2.15;;;1.50;;
25637;SDS011;13496;51.040;13.680;2023-04-24T06:56:05;1.95;;;1.73;;
25637;SDS011;13496;51.040;13.680;2023-04-24T07:01:07;2.28;;;2.03;;
25637;SDS011;13496;51.040;13.680;2023-04-24T07:06:09;3.05;;;1.70;;
25637;SDS011;13496;51.040;13.680;2023-04-24T07:11:12;2.92;;;1.70;;
25637;SDS011;13496;51.040;13.680;2023-04-24T07:16:13;2.28;;;1.70;;
25637;SDS011;13496;51.040;13.680;2023-04-24T07:21:15;1.48;;;1.38;;
25637;SDS011;13496;51.040;13.680;2023-04-24T07:26:17;2.58;;;1.50;;
25637;SDS011;13496;51.040;13.680;2023-04-24T07:31:19;1.95;;;1.50;;
25637;SDS011;13496;51.040;13.680;2023-04-24T07:36:21;1.50;;;1.30;;
25637;SDS011;13496;51.040;13.680;2023-04-24T07:41:22;1.92;;;1.70;;
25637;SDS011;13496;51.040;13.680;2023-04-24T07:46:25;1.77;;;1.65;;
25637;SDS011;13496;51.040;13.680;2023-04-24T07:51:28;2.50;;;1.23;;
25637;SDS011;13496;51.040;13.680;2023-04-24T07:56:32;1.65;;;1.50;;
25637;SDS011;13496;51.040;13.680;2023-04-24T08:01:34;1.73;;;1.52;;
25637;SDS011;13496;51.040;13.680;2023-04-24T08:06:36;1.30;;;1.20;;
25637;SDS011;13496;51.040;13.680;2023-04-24T08:11:37;1.65;;;1.45;;
25637;SDS011;13496;51.040;13.680;2023-04-24T08:16:39;1.30;;;1.20;;
25637;SDS011;13496;51.040;13.680;2023-04-24T08:21:41;3.15;;;1.40;;
25637;SDS011;13496;51.040;13.680;2023-04-24T08:26:43;1.30;;;1.08;;
25637;SDS011;13496;51.040;13.680;2023-04-24T08:31:44;1.45;;;1.30;;
25637;SDS011;13496;51.040;13.680;2023-04-24T08:36:46;2.33;;;1.20;;
25637;SDS011;13496;51.040;13.680;2023-04-24T08:41:48;1.63;;;1.40;;
25637;SDS011;13496;51.040;13.680;2023-04-24T08:46:51;1.60;;;1.40;;
25637;SDS011;13496;51.040;13.680;2023-04-24T08:51:54;1.67;;;1.10;;
25637;SDS011;13496;51.040;13.680;2023-04-24T08:56:58;1.48;;;1.30;;
25637;SDS011;13496;51.040;13.680;2023-04-24T09:02:04;1.35;;;1.10;;
25637;SDS011;13496;51.040;13.680;2023-04-24T09:07:07;2.03;;;1.20;;
25637;SDS011;13496;51.040;13.680;2023-04-24T09:12:11;3.10;;;1.95;;
25637;SDS011;13496;51.040;13.680;2023-04-24T09:17:13;1.83;;;1.73;;
25637;SDS011;13496;51.040;13.680;2023-04-24T09:22:15;2.10;;;1.60;;
25637;SDS011;13496;51.040;13.680;2023-04-24T09:27:17;1.58;;;1.48;;
25637;SDS011;13496;51.040;13.680;2023-04-24T09:32:21;1.80;;;1.60;;
25637;SDS011;13496;51.040;13.680;2023-04-24T09:37:29;1.80;;;1.50;;
25637;SDS011;13496;51.040;13.680;2023-04-24T09:42:31;2.00;;;1.50;;
25637;SDS011;13496;51.040;13.680;2023-04-24T09:47:36;1.85;;;1.60;;
25637;SDS011;13496;51.040;13.680;2023-04-24T09:52:39;1.65;;;1.55;;
25637;SDS011;13496;51.040;13.680;2023-04-24T09:57:52;1.77;;;1.67;;
25637;SDS011;13496;51.040;13.680;2023-04-24T10:03:00;1.60;;;1.50;;
25637;SDS011;13496;51.040;13.680;2023-04-24T10:08:03;1.33;;;1.23;;
25637;SDS011;13496;51.040;13.680;2023-04-24T10:13:05;1.50;;;1.40;;
25637;SDS011;13496;51.040;13.680;2023-04-24T10:18:09;1.20;;;1.20;;
25637;SDS011;13496;51.040;13.680;2023-04-24T10:23:11;1.60;;;1.50;;
25637;SDS011;13496;51.040;13.680;2023-04-24T10:28:13;1.75;;;1.60;;
25637;SDS011;13496;51.040;13.680;2023-04-24T10:33:15;1.63;;;1.50;;
25637;SDS011;13496;51.040;13.680;2023-04-24T10:38:21;1.45;;;1.35;;
25637;SDS011;13496;51.040;13.680;2023-04-24T10:43:26;2.08;;;1.83;;
25637;SDS011;13496;51.040;13.680;2023-04-24T10:48:27;1.48;;;1.38;;
25637;SDS011;13496;51.040;13.680;2023-04-24T10:53:29;1.70;;;1.38;;
25637;SDS011;13496;51.040;13.680;2023-04-24T11:03:50;1.30;;;1.20;;
25637;SDS011;13496;51.040;13.680;2023-04-24T11:08:58;1.40;;;1.27;;
25637;SDS011;13496;51.040;13.680;2023-04-24T11:14:06;1.38;;;1.27;;
25637;SDS011;13496;51.040;13.680;2023-04-24T11:19:09;1.45;;;1.33;;
25637;SDS011;13496;51.040;13.680;2023-04-24T11:40:20;1.63;;;1.52;;
25637;SDS011;13496;51.040;13.680;2023-04-24T11:45:25;1.67;;;1.33;;
25637;SDS011;13496;51.040;13.680;2023-04-24T11:50:30;1.40;;;1.30;;
25637;SDS011;13496;51.040;13.680;2023-04-24T11:55:31;1.20;;;1.10;;
25637;SDS011;13496;51.040;13.680;2023-04-24T12:00:33;1.92;;;1.17;;
25637;SDS011;13496;51.040;13.680;2023-04-24T12:05:35;1.30;;;1.20;;
25637;SDS011;13496;51.040;13.680;2023-04-24T12:10:37;1.23;;;1.10;;
25637;SDS011;13496;51.040;13.680;2023-04-24T12:15:39;1.17;;;1.10;;
25637;SDS011;13496;51.040;13.680;2023-04-24T12:20:41;1.35;;;1.15;;
25637;SDS011;13496;51.040;13.680;2023-04-24T12:25:43;1.48;;;1.10;;
25637;SDS011;13496;51.040;13.680;2023-04-24T12:30:48;36.30;;;5.47;;
25637;SDS011;13496;51.040;13.680;2023-04-24T12:35:53;16.42;;;3.13;;
25637;SDS011;13496;51.040;13.680;2023-04-24T12:41:03;13.32;;;3.25;;
25637;SDS011;13496;51.040;13.680;2023-04-24T12:46:07;108.50;;;12.32;;
25637;SDS011;13496;51.040;13.680;2023-04-24T12:51:08;74.38;;;10.15;;
25637;SDS011;13496;51.040;13.680;2023-04-24T12:56:10;47.92;;;8.25;;
25637;SDS011;13496;51.040;13.680;2023-04-24T13:01:12;32.30;;;5.72;;
25637;SDS011;13496;51.040;13.680;2023-04-24T13:06:14;19.65;;;4.50;;
25637;SDS011;13496;51.040;13.680;2023-04-24T13:11:15;20.35;;;4.43;;
25637;SDS011;13496;51.040;13.680;2023-04-24T13:16:17;17.25;;;4.43;;
25637;SDS011;13496;51.040;13.680;2023-04-24T13:21:19;10.98;;;2.97;;
25637;SDS011;13496;51.040;13.680;2023-04-24T13:26:20;14.13;;;2.85;;
25637;SDS011;13496;51.040;13.680;2023-04-24T13:31:22;11.50;;;2.42;;
25637;SDS011;13496;51.040;13.680;2023-04-24T13:36:24;9.38;;;2.40;;
25637;SDS011;13496;51.040;13.680;2023-04-24T13:41:26;8.30;;;2.28;;
25637;SDS011;13496;51.040;13.680;2023-04-24T13:46:28;8.00;;;2.33;;
25637;SDS011;13496;51.040;13.680;2023-04-24T13:51:30;5.10;;;2.30;;
25637;SDS011;13496;51.040;13.680;2023-04-24T13:56:32;5.40;;;2.10;;
25637;SDS011;13496;51.040;13.680;2023-04-24T14:01:34;8.50;;;2.45;;
25637;SDS011;13496;51.040;13.680;2023-04-24T14:06:35;4.95;;;2.13;;
25637;SDS011;13496;51.040;13.680;2023-04-24T14:11:37;5.70;;;1.88;;
25637;SDS011;13496;51.040;13.680;2023-04-24T14:16:39;9.70;;;3.22;;
25637;SDS011;13496;51.040;13.680;2023-04-24T14:21:40;10.18;;;3.00;;
25637;SDS011;13496;51.040;13.680;2023-04-24T14:26:42;5.70;;;2.22;;
25637;SDS011;13496;51.040;13.680;2023-04-24T14:31:44;6.28;;;2.33;;
25637;SDS011;13496;51.040;13.680;2023-04-24T14:36:46;9.50;;;2.70;;
25637;SDS011;13496;51.040;13.680;2023-04-24T14:41:47;10.48;;;3.72;;
25637;SDS011;13496;51.040;13.680;2023-04-24T14:46:49;14.63;;;3.80;;
25637;SDS011;13496;51.040;13.680;2023-04-24T14:51:51;8.27;;;2.78;;
25637;SDS011;13496;51.040;13.680;2023-04-24T14:56:53;8.57;;;2.60;;
25637;SDS011;13496;51.040;13.680;2023-04-24T15:01:56;6.82;;;2.53;;
25637;SDS011;13496;51.040;13.680;2023-04-24T15:06:59;5.70;;;2.20;;
25637;SDS011;13496;51.040;13.680;2023-04-24T15:12:00;8.57;;;2.33;;
25637;SDS011;13496;51.040;13.680;2023-04-24T15:17:03;7.22;;;2.58;;
25637;SDS011;13496;51.040;13.680;2023-04-24T15:22:04;2.63;;;1.95;;
25637;SDS011;13496;51.040;13.680;2023-04-24T15:27:08;4.70;;;1.90;;
25637;SDS011;13496;51.040;13.680;2023-04-24T15:32:11;2.78;;;2.03;;
25637;SDS011;13496;51.040;13.680;2023-04-24T15:37:13;3.55;;;1.80;;
25637;SDS011;13496;51.040;13.680;2023-04-24T15:42:15;5.60;;;2.10;;
25637;SDS011;13496;51.040;13.680;2023-04-24T15:47:16;4.07;;;2.10;;
25637;SDS011;13496;51.040;13.680;2023-04-24T15:52:18;4.05;;;1.65;;
25637;SDS011;13496;51.040;13.680;2023-04-24T15:57:20;3.78;;;2.17;;
25637;SDS011;13496;51.040;13.680;2023-04-24T16:02:22;5.47;;;1.70;;
25637;SDS011;13496;51.040;13.680;2023-04-24T16:07:23;6.82;;;2.20;;
25637;SDS011;13496;51.040;13.680;2023-04-24T16:12:25;5.40;;;2.15;;
25637;SDS011;13496;51.040;13.680;2023-04-24T16:17:28;4.68;;;2.15;;
25637;SDS011;13496;51.040;13.680;2023-04-24T16:22:30;3.83;;;1.98;;
25637;SDS011;13496;51.040;13.680;2023-04-24T16:27:32;5.65;;;2.00;;
25637;SDS011;13496;51.040;13.680;2023-04-24T16:32:33;7.90;;;2.08;;
25637;SDS011;13496;51.040;13.680;2023-04-24T16:37:35;4.28;;;1.65;;
25637;SDS011;13496;51.040;13.680;2023-04-24T16:42:37;1.92;;;1.48;;
25637;SDS011;13496;51.040;13.680;2023-04-24T16:47:39;2.40;;;1.23;;
25637;SDS011;13496;51.040;13.680;2023-04-24T16:52:41;1.95;;;1.60;;
25637;SDS011;13496;51.040;13.680;2023-04-24T16:57:43;5.15;;;1.85;;
25637;SDS011;13496;51.040;13.680;2023-04-24T17:02:45;3.20;;;1.50;;
25637;SDS011;13496;51.040;13.680;2023-04-24T17:07:49;3.83;;;1.42;;
25637;SDS011;13496;51.040;13.680;2023-04-24T17:12:50;2.15;;;1.63;;
25637;SDS011;13496;51.040;13.680;2023-04-24T17:17:52;1.95;;;1.38;;
25637;SDS011;13496;51.040;13.680;2023-04-24T17:22:54;2.65;;;1.45;;
25637;SDS011;13496;51.040;13.680;2023-04-24T17:27:55;1.38;;;1.20;;
25637;SDS011;13496;51.040;13.680;2023-04-24T17:32:57;5.53;;;1.52;;
25637;SDS011;13496;51.040;13.680;2023-04-24T17:37:59;2.72;;;1.35;;
25637;SDS011;13496;51.040;13.680;2023-04-24T17:43:00;2.42;;;1.50;;
25637;SDS011;13496;51.040;13.680;2023-04-24T17:48:02;2.03;;;1.35;;
25637;SDS011;13496;51.040;13.680;2023-04-24T17:53:04;2.72;;;1.50;;
25637;SDS011;13496;51.040;13.680;2023-04-24T17:58:06;5.55;;;1.70;;
25637;SDS011;13496;51.040;13.680;2023-04-24T18:03:08;2.55;;;1.48;;
25637;SDS011;13496;51.040;13.680;2023-04-24T18:08:10;1.40;;;1.10;;
25637;SDS011;13496;51.040;13.680;2023-04-24T18:13:12;3.05;;;1.25;;
25637;SDS011;13496;51.040;13.680;2023-04-24T18:18:14;1.95;;;1.20;;
25637;SDS011;13496;51.040;13.680;2023-04-24T18:23:15;1.73;;;1.17;;
25637;SDS011;13496;51.040;13.680;2023-04-24T18:28:17;1.35;;;1.10;;
25637;SDS011;13496;51.040;13.680;2023-04-24T18:33:19;2.30;;;1.15;;
25637;SDS011;13496;51.040;13.680;2023-04-24T18:38:20;3.92;;;1.50;;
25637;SDS011;13496;51.040;13.680;2023-04-24T18:43:22;1.48;;;1.20;;
25637;SDS011;13496;51.040;13.680;2023-04-24T18:48:24;3.35;;;1.30;;
25637;SDS011;13496;51.040;13.680;2023-04-24T18:53:28;2.50;;;1.10;;
25637;SDS011;13496;51.040;13.680;2023-04-24T18:58:30;1.73;;;1.10;;
25637;SDS011;13496;51.040;13.680;2023-04-24T19:03:32;3.40;;;1.30;;
25637;SDS011;13496;51.040;13.680;2023-04-24T19:08:34;2.17;;;1.30;;
25637;SDS011;13496;51.040;13.680;2023-04-24T19:13:38;1.23;;;1.02;;
25637;SDS011;13496;51.040;13.680;2023-04-24T19:18:40;8.82;;;1.80;;
25637;SDS011;13496;51.040;13.680;2023-04-24T19:23:42;2.65;;;1.30;;
25637;SDS011;13496;51.040;13.680;2023-04-24T19:28:44;2.58;;;1.30;;
25637;SDS011;13496;51.040;13.680;2023-04-24T19:33:46;4.43;;;1.83;;
25637;SDS011;13496;51.040;13.680;2023-04-24T19:38:48;3.28;;;1.45;;
25637;SDS011;13496;51.040;13.680;2023-04-24T19:43:50;1.98;;;1.00;;
25637;SDS011;13496;51.040;13.680;2023-04-24T19:48:52;3.42;;;1.48;;
25637;SDS011;13496;51.040;13.680;2023-04-24T19:53:54;2.17;;;1.20;;
25637;SDS011;13496;51.040;13.680;2023-04-24T19:58:55;3.15;;;1.30;;
25637;SDS011;13496;51.040;13.680;2023-04-24T20:03:57;2.72;;;1.30;;
25637;SDS011;13496;51.040;13.680;2023-04-24T20:08:59;4.43;;;1.30;;
25637;SDS011;13496;51.040;13.680;2023-04-24T20:14:00;2.80;;;1.40;;
25637;SDS011;13496;51.040;13.680;2023-04-24T20:19:04;1.67;;;1.52;;
25637;SDS011;13496;51.040;13.680;2023-04-24T20:24:05;2.03;;;1.35;;
25637;SDS011;13496;51.040;13.680;2023-04-24T20:29:09;1.27;;;1.00;;
25637;SDS011;13496;51.040;13.680;2023-04-24T20:34:11;2.28;;;1.25;;
25637;SDS011;13496;51.040;13.680;2023-04-24T20:39:13;2.28;;;1.00;;
25637;SDS011;13496;51.040;13.680;2023-04-24T20:44:14;3.35;;;1.40;;
25637;SDS011;13496;51.040;13.680;2023-04-24T20:49:16;3.10;;;1.27;;
25637;SDS011;13496;51.040;13.680;2023-04-24T20:54:18;2.30;;;1.10;;
25637;SDS011;13496;51.040;13.680;2023-04-24T20:59:20;2.47;;;1.25;;
25637;SDS011;13496;51.040;13.680;2023-04-24T21:04:21;2.47;;;1.38;;
25637;SDS011;13496;51.040;13.680;2023-04-24T21:09:23;1.08;;;0.95;;
25637;SDS011;13496;51.040;13.680;2023-04-24T21:14:25;2.78;;;1.30;;
25637;SDS011;13496;51.040;13.680;2023-04-24T21:19:26;1.40;;;1.10;;
25637;SDS011;13496;51.040;13.680;2023-04-24T21:24:28;2.30;;;1.10;;
25637;SDS011;13496;51.040;13.680;2023-04-24T21:29:31;1.55;;;1.35;;
25637;SDS011;13496;51.040;13.680;2023-04-24T21:34:32;2.65;;;1.13;;
25637;SDS011;13496;51.040;13.680;2023-04-24T21:39:34;2.75;;;1.10;;
25637;SDS011;13496;51.040;13.680;2023-04-24T21:44:36;1.40;;;1.17;;
25637;SDS011;13496;51.040;13.680;2023-04-24T21:49:38;1.38;;;1.00;;
25637;SDS011;13496;51.040;13.680;2023-04-24T21:54:39;0.90;;;0.90;;
25637;SDS011;13496;51.040;13.680;2023-04-24T21:59:41;4.40;;;1.30;;
25637;SDS011;13496;51.040;13.680;2023-04-24T22:04:43;2.38;;;1.10;;
25637;SDS011;13496;51.040;13.680;2023-04-24T22:09:45;1.20;;;0.90;;
25637;SDS011;13496;51.040;13.680;2023-04-24T22:14:47;1.38;;;1.10;;
25637;SDS011;13496;51.040;13.680;2023-04-24T22:19:48;1.45;;;1.35;;
25637;SDS011;13496;51.040;13.680;2023-04-24T22:24:51;0.95;;;0.80;;
25637;SDS011;13496;51.040;13.680;2023-04-24T22:29:53;1.10;;;1.00;;
25637;SDS011;13496;51.040;13.680;2023-04-24T22:34:54;2.25;;;1.20;;
25637;SDS011;13496;51.040;13.680;2023-04-24T22:39:56;0.80;;;0.80;;
25637;SDS011;13496;51.040;13.680;2023-04-24T22:45:00;1.55;;;1.02;;
25637;SDS011;13496;51.040;13.680;2023-04-24T22:50:01;0.88;;;0.88;;
25637;SDS011;13496;51.040;13.680;2023-04-24T22:55:03;1.95;;;1.13;;
25637;SDS011;13496;51.040;13.680;2023-04-24T23:00:06;1.55;;;0.88;;
25637;SDS011;13496;51.040;13.680;2023-04-24T23:05:11;1.20;;;1.10;;
25637;SDS011;13496;51.040;13.680;2023-04-24T23:10:13;0.98;;;0.98;;
25637;SDS011;13496;51.040;13.680;2023-04-24T23:15:14;1.33;;;1.00;;
25637;SDS011;13496;51.040;13.680;2023-04-24T23:20:16;1.38;;;1.00;;
25637;SDS011;13496;51.040;13.680;2023-04-24T23:25:18;1.08;;;0.95;;
25637;SDS011;13496;51.040;13.680;2023-04-24T23:30:20;1.60;;;1.05;;
25637;SDS011;13496;51.040;13.680;2023-04-24T23:35:22;2.00;;;1.13;;
25637;SDS011;13496;51.040;13.680;2023-04-24T23:40:23;1.10;;;1.00;;
25637;SDS011;13496;51.040;13.680;2023-04-24T23:45:25;1.00;;;0.90;;
25637;SDS011;13496;51.040;13.680;2023-04-24T23:50:27;1.13;;;1.02;;
25637;SDS011;13496;51.040;13.680;2023-04-24T23:55:29;1.00;;;0.90;;
